Terminal Aerodrome Forecast
Issued by NWS Brownsville, TX

Current Version | Previous Version | Text Only | Print | Product List | Glossary On
Versions: 1 2 3 4 5 6 7 8 9 10 11 12 13 14 15 16 17 18 19 20 21 22 23 24 25
000
FTUS44 KBRO 211100
TAFHRL
TAF
KHRL 211120Z 2112/2212 34008KT P6SM OVC013
     FM220000 11005KT P6SM OVC050
     FM220300 VRB04KT 6SM BR OVC015
     FM220700 20004KT 4SM BR OVC007=

USA.gov is the U.S. government's official web portal to all federal, state and local government web resources and services.